sensor_id;sensor_type;location;lat;lon;timestamp;P1;durP1;ratioP1;P2;durP2;ratioP2
24739;SDS011;45234;48.148;17.128;2023-05-07T00:01:44;3.67;;;2.50;;
24739;SDS011;45234;48.148;17.128;2023-05-07T00:04:14;3.63;;;1.95;;
24739;SDS011;45234;48.148;17.128;2023-05-07T00:06:44;3.60;;;2.50;;
24739;SDS011;45234;48.148;17.128;2023-05-07T00:09:11;3.65;;;2.35;;
24739;SDS011;45234;48.148;17.128;2023-05-07T00:11:38;3.88;;;1.80;;
24739;SDS011;45234;48.148;17.128;2023-05-07T00:14:08;4.32;;;2.83;;
24739;SDS011;45234;48.148;17.128;2023-05-07T00:16:35;3.63;;;2.38;;
24739;SDS011;45234;48.148;17.128;2023-05-07T00:19:03;3.78;;;2.40;;
24739;SDS011;45234;48.148;17.128;2023-05-07T00:21:30;3.65;;;2.45;;
24739;SDS011;45234;48.148;17.128;2023-05-07T00:23:57;3.13;;;2.22;;
24739;SDS011;45234;48.148;17.128;2023-05-07T00:26:24;3.67;;;2.20;;
24739;SDS011;45234;48.148;17.128;2023-05-07T00:28:51;3.33;;;2.70;;
24739;SDS011;45234;48.148;17.128;2023-05-07T00:31:18;2.80;;;2.47;;
24739;SDS011;45234;48.148;17.128;2023-05-07T00:33:45;4.57;;;2.85;;
24739;SDS011;45234;48.148;17.128;2023-05-07T00:36:12;4.38;;;2.28;;
24739;SDS011;45234;48.148;17.128;2023-05-07T00:38:39;2.92;;;2.40;;
24739;SDS011;45234;48.148;17.128;2023-05-07T00:41:06;3.17;;;2.55;;
24739;SDS011;45234;48.148;17.128;2023-05-07T00:43:33;3.28;;;1.90;;
24739;SDS011;45234;48.148;17.128;2023-05-07T00:46:00;4.25;;;3.15;;
24739;SDS011;45234;48.148;17.128;2023-05-07T00:48:27;4.38;;;2.58;;
24739;SDS011;45234;48.148;17.128;2023-05-07T00:50:56;2.58;;;1.98;;
24739;SDS011;45234;48.148;17.128;2023-05-07T00:53:23;4.57;;;2.70;;
24739;SDS011;45234;48.148;17.128;2023-05-07T00:55:50;3.85;;;2.63;;
24739;SDS011;45234;48.148;17.128;2023-05-07T00:58:19;3.13;;;2.40;;
24739;SDS011;45234;48.148;17.128;2023-05-07T01:00:47;3.10;;;2.80;;
24739;SDS011;45234;48.148;17.128;2023-05-07T01:03:14;4.00;;;2.30;;
24739;SDS011;45234;48.148;17.128;2023-05-07T01:05:42;3.85;;;2.90;;
24739;SDS011;45234;48.148;17.128;2023-05-07T01:08:11;5.88;;;2.97;;
24739;SDS011;45234;48.148;17.128;2023-05-07T01:10:40;4.18;;;2.90;;
24739;SDS011;45234;48.148;17.128;2023-05-07T01:13:12;5.60;;;3.33;;
24739;SDS011;45234;48.148;17.128;2023-05-07T01:15:40;5.25;;;3.30;;
24739;SDS011;45234;48.148;17.128;2023-05-07T01:18:08;7.88;;;3.65;;
24739;SDS011;45234;48.148;17.128;2023-05-07T01:20:35;4.15;;;3.13;;
24739;SDS011;45234;48.148;17.128;2023-05-07T01:23:02;5.57;;;3.20;;
24739;SDS011;45234;48.148;17.128;2023-05-07T01:25:31;4.15;;;3.75;;
24739;SDS011;45234;48.148;17.128;2023-05-07T01:28:00;6.30;;;3.60;;
24739;SDS011;45234;48.148;17.128;2023-05-07T01:30:30;4.05;;;3.40;;
24739;SDS011;45234;48.148;17.128;2023-05-07T01:33:04;4.13;;;3.50;;
24739;SDS011;45234;48.148;17.128;2023-05-07T01:35:40;4.22;;;3.75;;
24739;SDS011;45234;48.148;17.128;2023-05-07T01:38:11;4.88;;;3.88;;
24739;SDS011;45234;48.148;17.128;2023-05-07T01:40:39;5.10;;;3.60;;
24739;SDS011;45234;48.148;17.128;2023-05-07T01:43:08;5.22;;;3.80;;
24739;SDS011;45234;48.148;17.128;2023-05-07T01:45:36;5.45;;;3.72;;
24739;SDS011;45234;48.148;17.128;2023-05-07T01:48:03;6.60;;;4.35;;
24739;SDS011;45234;48.148;17.128;2023-05-07T01:50:32;6.75;;;4.50;;
24739;SDS011;45234;48.148;17.128;2023-05-07T01:53:01;4.82;;;3.60;;
24739;SDS011;45234;48.148;17.128;2023-05-07T01:55:28;5.20;;;4.55;;
24739;SDS011;45234;48.148;17.128;2023-05-07T01:57:55;5.93;;;4.43;;
24739;SDS011;45234;48.148;17.128;2023-05-07T02:00:22;4.05;;;3.65;;
24739;SDS011;45234;48.148;17.128;2023-05-07T02:02:49;6.13;;;4.13;;
24739;SDS011;45234;48.148;17.128;2023-05-07T02:05:26;6.28;;;5.15;;
24739;SDS011;45234;48.148;17.128;2023-05-07T02:07:59;6.75;;;4.97;;
24739;SDS011;45234;48.148;17.128;2023-05-07T02:10:28;6.45;;;5.43;;
24739;SDS011;45234;48.148;17.128;2023-05-07T02:12:54;6.47;;;5.10;;
24739;SDS011;45234;48.148;17.128;2023-05-07T02:15:22;6.45;;;5.57;;
24739;SDS011;45234;48.148;17.128;2023-05-07T02:18:03;6.63;;;5.40;;
24739;SDS011;45234;48.148;17.128;2023-05-07T02:20:36;7.03;;;5.03;;
24739;SDS011;45234;48.148;17.128;2023-05-07T02:23:03;6.35;;;5.40;;
24739;SDS011;45234;48.148;17.128;2023-05-07T02:25:30;6.43;;;5.40;;
24739;SDS011;45234;48.148;17.128;2023-05-07T02:27:58;7.20;;;5.25;;
24739;SDS011;45234;48.148;17.128;2023-05-07T02:30:38;8.55;;;5.57;;
24739;SDS011;45234;48.148;17.128;2023-05-07T02:33:07;7.45;;;5.35;;
24739;SDS011;45234;48.148;17.128;2023-05-07T02:35:37;6.75;;;5.68;;
24739;SDS011;45234;48.148;17.128;2023-05-07T02:38:04;6.90;;;5.63;;
24739;SDS011;45234;48.148;17.128;2023-05-07T02:40:32;6.70;;;6.00;;
24739;SDS011;45234;48.148;17.128;2023-05-07T02:42:59;7.38;;;5.43;;
24739;SDS011;45234;48.148;17.128;2023-05-07T02:45:27;7.63;;;5.30;;
24739;SDS011;45234;48.148;17.128;2023-05-07T02:47:54;7.57;;;6.18;;
24739;SDS011;45234;48.148;17.128;2023-05-07T02:50:21;7.15;;;5.90;;
24739;SDS011;45234;48.148;17.128;2023-05-07T02:52:48;11.85;;;5.72;;
24739;SDS011;45234;48.148;17.128;2023-05-07T02:55:15;16.10;;;6.53;;
24739;SDS011;45234;48.148;17.128;2023-05-07T02:57:41;7.28;;;6.47;;
24739;SDS011;45234;48.148;17.128;2023-05-07T03:00:13;9.90;;;6.88;;
24739;SDS011;45234;48.148;17.128;2023-05-07T03:02:48;8.27;;;6.07;;
24739;SDS011;45234;48.148;17.128;2023-05-07T03:05:15;8.18;;;6.88;;
24739;SDS011;45234;48.148;17.128;2023-05-07T03:07:42;8.93;;;6.80;;
24739;SDS011;45234;48.148;17.128;2023-05-07T03:10:12;10.93;;;6.68;;
24739;SDS011;45234;48.148;17.128;2023-05-07T03:12:41;9.32;;;7.20;;
24739;SDS011;45234;48.148;17.128;2023-05-07T03:15:11;10.30;;;6.55;;
24739;SDS011;45234;48.148;17.128;2023-05-07T03:17:38;9.73;;;6.88;;
24739;SDS011;45234;48.148;17.128;2023-05-07T03:20:06;10.50;;;8.27;;
24739;SDS011;45234;48.148;17.128;2023-05-07T03:22:36;14.02;;;8.57;;
24739;SDS011;45234;48.148;17.128;2023-05-07T03:25:03;11.18;;;8.88;;
24739;SDS011;45234;48.148;17.128;2023-05-07T03:27:34;9.38;;;8.23;;
24739;SDS011;45234;48.148;17.128;2023-05-07T03:30:01;12.27;;;8.30;;
24739;SDS011;45234;48.148;17.128;2023-05-07T03:32:30;9.63;;;8.35;;
24739;SDS011;45234;48.148;17.128;2023-05-07T03:34:58;12.85;;;10.00;;
24739;SDS011;45234;48.148;17.128;2023-05-07T03:37:25;14.20;;;9.95;;
24739;SDS011;45234;48.148;17.128;2023-05-07T03:39:52;12.02;;;9.68;;
24739;SDS011;45234;48.148;17.128;2023-05-07T03:42:19;12.00;;;9.38;;
24739;SDS011;45234;48.148;17.128;2023-05-07T03:44:49;12.40;;;9.38;;
24739;SDS011;45234;48.148;17.128;2023-05-07T03:47:16;13.75;;;8.77;;
24739;SDS011;45234;48.148;17.128;2023-05-07T03:49:44;12.98;;;9.68;;
24739;SDS011;45234;48.148;17.128;2023-05-07T03:52:12;13.80;;;10.10;;
24739;SDS011;45234;48.148;17.128;2023-05-07T03:54:39;11.35;;;9.52;;
24739;SDS011;45234;48.148;17.128;2023-05-07T03:57:10;12.82;;;9.68;;
24739;SDS011;45234;48.148;17.128;2023-05-07T03:59:37;12.43;;;10.20;;
24739;SDS011;45234;48.148;17.128;2023-05-07T04:02:06;12.73;;;10.90;;
24739;SDS011;45234;48.148;17.128;2023-05-07T04:04:33;12.25;;;10.52;;
24739;SDS011;45234;48.148;17.128;2023-05-07T04:07:00;12.38;;;10.98;;
24739;SDS011;45234;48.148;17.128;2023-05-07T04:09:28;11.85;;;10.13;;
24739;SDS011;45234;48.148;17.128;2023-05-07T04:11:56;13.82;;;10.50;;
24739;SDS011;45234;48.148;17.128;2023-05-07T04:14:23;12.20;;;10.85;;
24739;SDS011;45234;48.148;17.128;2023-05-07T04:16:50;11.70;;;10.50;;
24739;SDS011;45234;48.148;17.128;2023-05-07T04:19:17;14.02;;;11.63;;
24739;SDS011;45234;48.148;17.128;2023-05-07T04:21:47;13.40;;;10.98;;
24739;SDS011;45234;48.148;17.128;2023-05-07T04:24:15;13.48;;;10.90;;
24739;SDS011;45234;48.148;17.128;2023-05-07T04:26:43;13.18;;;11.07;;
24739;SDS011;45234;48.148;17.128;2023-05-07T04:29:09;12.00;;;10.02;;
24739;SDS011;45234;48.148;17.128;2023-05-07T04:31:37;16.25;;;11.30;;
24739;SDS011;45234;48.148;17.128;2023-05-07T04:34:04;13.73;;;10.73;;
24739;SDS011;45234;48.148;17.128;2023-05-07T04:36:31;13.48;;;11.25;;
24739;SDS011;45234;48.148;17.128;2023-05-07T04:39:03;13.18;;;11.05;;
24739;SDS011;45234;48.148;17.128;2023-05-07T04:41:30;13.98;;;11.00;;
24739;SDS011;45234;48.148;17.128;2023-05-07T04:43:59;12.52;;;11.20;;
24739;SDS011;45234;48.148;17.128;2023-05-07T04:46:28;15.75;;;12.30;;
24739;SDS011;45234;48.148;17.128;2023-05-07T04:48:56;13.95;;;11.63;;
24739;SDS011;45234;48.148;17.128;2023-05-07T04:51:23;13.93;;;11.15;;
24739;SDS011;45234;48.148;17.128;2023-05-07T04:53:51;14.30;;;11.85;;
24739;SDS011;45234;48.148;17.128;2023-05-07T04:56:18;12.57;;;11.20;;
24739;SDS011;45234;48.148;17.128;2023-05-07T04:58:46;13.80;;;10.05;;
24739;SDS011;45234;48.148;17.128;2023-05-07T05:01:18;12.82;;;10.95;;
24739;SDS011;45234;48.148;17.128;2023-05-07T05:03:45;11.10;;;9.88;;
24739;SDS011;45234;48.148;17.128;2023-05-07T05:06:15;10.63;;;9.15;;
24739;SDS011;45234;48.148;17.128;2023-05-07T05:08:42;8.93;;;8.02;;
24739;SDS011;45234;48.148;17.128;2023-05-07T05:11:09;9.20;;;8.18;;
24739;SDS011;45234;48.148;17.128;2023-05-07T05:13:37;8.43;;;7.63;;
24739;SDS011;45234;48.148;17.128;2023-05-07T05:16:15;9.52;;;8.23;;
24739;SDS011;45234;48.148;17.128;2023-05-07T05:18:45;8.00;;;7.13;;
24739;SDS011;45234;48.148;17.128;2023-05-07T05:21:17;8.90;;;7.95;;
24739;SDS011;45234;48.148;17.128;2023-05-07T05:23:47;8.00;;;7.20;;
24739;SDS011;45234;48.148;17.128;2023-05-07T05:26:18;8.55;;;7.53;;
24739;SDS011;45234;48.148;17.128;2023-05-07T05:28:47;8.80;;;7.68;;
24739;SDS011;45234;48.148;17.128;2023-05-07T05:31:22;7.53;;;6.82;;
24739;SDS011;45234;48.148;17.128;2023-05-07T05:33:50;7.63;;;6.90;;
24739;SDS011;45234;48.148;17.128;2023-05-07T05:36:20;7.72;;;6.60;;
24739;SDS011;45234;48.148;17.128;2023-05-07T05:38:55;7.75;;;6.50;;
24739;SDS011;45234;48.148;17.128;2023-05-07T05:41:22;7.25;;;6.55;;
24739;SDS011;45234;48.148;17.128;2023-05-07T05:43:52;8.10;;;6.43;;
24739;SDS011;45234;48.148;17.128;2023-05-07T05:46:29;7.32;;;6.30;;
24739;SDS011;45234;48.148;17.128;2023-05-07T05:48:57;8.05;;;7.25;;
24739;SDS011;45234;48.148;17.128;2023-05-07T05:51:35;8.30;;;6.80;;
24739;SDS011;45234;48.148;17.128;2023-05-07T05:54:01;8.45;;;7.15;;
24739;SDS011;45234;48.148;17.128;2023-05-07T05:56:29;7.60;;;6.88;;
24739;SDS011;45234;48.148;17.128;2023-05-07T05:58:56;8.00;;;7.30;;
24739;SDS011;45234;48.148;17.128;2023-05-07T06:01:24;10.27;;;7.32;;
24739;SDS011;45234;48.148;17.128;2023-05-07T06:03:54;9.07;;;8.20;;
24739;SDS011;45234;48.148;17.128;2023-05-07T06:06:21;9.93;;;8.80;;
24739;SDS011;45234;48.148;17.128;2023-05-07T06:08:48;9.40;;;7.95;;
24739;SDS011;45234;48.148;17.128;2023-05-07T06:11:20;10.10;;;8.95;;
24739;SDS011;45234;48.148;17.128;2023-05-07T06:13:48;9.50;;;8.60;;
24739;SDS011;45234;48.148;17.128;2023-05-07T06:16:15;9.73;;;8.73;;
24739;SDS011;45234;48.148;17.128;2023-05-07T06:18:44;9.98;;;9.07;;
24739;SDS011;45234;48.148;17.128;2023-05-07T06:21:13;10.13;;;9.23;;
24739;SDS011;45234;48.148;17.128;2023-05-07T06:23:41;9.60;;;8.70;;
24739;SDS011;45234;48.148;17.128;2023-05-07T06:26:09;9.45;;;8.45;;
24739;SDS011;45234;48.148;17.128;2023-05-07T06:28:40;8.93;;;8.13;;
24739;SDS011;45234;48.148;17.128;2023-05-07T06:31:28;9.15;;;8.25;;
24739;SDS011;45234;48.148;17.128;2023-05-07T06:34:04;9.98;;;8.98;;
24739;SDS011;45234;48.148;17.128;2023-05-07T06:36:35;11.38;;;9.07;;
24739;SDS011;45234;48.148;17.128;2023-05-07T06:39:11;9.48;;;8.57;;
24739;SDS011;45234;48.148;17.128;2023-05-07T06:41:38;9.88;;;9.02;;
24739;SDS011;45234;48.148;17.128;2023-05-07T06:44:13;10.35;;;9.32;;
24739;SDS011;45234;48.148;17.128;2023-05-07T06:46:47;9.73;;;8.82;;
24739;SDS011;45234;48.148;17.128;2023-05-07T06:49:19;10.77;;;9.88;;
24739;SDS011;45234;48.148;17.128;2023-05-07T06:51:47;10.32;;;9.43;;
24739;SDS011;45234;48.148;17.128;2023-05-07T06:54:14;10.80;;;9.80;;
24739;SDS011;45234;48.148;17.128;2023-05-07T06:56:45;12.45;;;11.25;;
24739;SDS011;45234;48.148;17.128;2023-05-07T06:59:12;12.85;;;11.65;;
24739;SDS011;45234;48.148;17.128;2023-05-07T07:01:39;12.88;;;11.57;;
24739;SDS011;45234;48.148;17.128;2023-05-07T07:04:08;13.50;;;12.20;;
24739;SDS011;45234;48.148;17.128;2023-05-07T07:06:36;13.95;;;12.55;;
24739;SDS011;45234;48.148;17.128;2023-05-07T07:09:07;15.55;;;14.02;;
24739;SDS011;45234;48.148;17.128;2023-05-07T07:11:35;16.25;;;14.55;;
24739;SDS011;45234;48.148;17.128;2023-05-07T07:14:02;16.70;;;15.05;;
24739;SDS011;45234;48.148;17.128;2023-05-07T07:16:35;17.92;;;16.13;;
24739;SDS011;45234;48.148;17.128;2023-05-07T07:19:02;18.08;;;16.17;;
24739;SDS011;45234;48.148;17.128;2023-05-07T07:21:29;19.38;;;17.35;;
24739;SDS011;45234;48.148;17.128;2023-05-07T07:23:56;18.45;;;16.52;;
24739;SDS011;45234;48.148;17.128;2023-05-07T07:26:24;17.98;;;16.02;;
24739;SDS011;45234;48.148;17.128;2023-05-07T07:28:51;18.27;;;16.45;;
24739;SDS011;45234;48.148;17.128;2023-05-07T07:31:20;19.63;;;17.52;;
24739;SDS011;45234;48.148;17.128;2023-05-07T07:33:48;18.65;;;16.70;;
24739;SDS011;45234;48.148;17.128;2023-05-07T07:36:18;16.65;;;14.95;;
24739;SDS011;45234;48.148;17.128;2023-05-07T07:38:48;17.40;;;15.60;;
24739;SDS011;45234;48.148;17.128;2023-05-07T07:41:16;17.40;;;15.65;;
24739;SDS011;45234;48.148;17.128;2023-05-07T07:43:42;16.02;;;14.43;;
24739;SDS011;45234;48.148;17.128;2023-05-07T07:46:09;15.55;;;14.00;;
24739;SDS011;45234;48.148;17.128;2023-05-07T07:48:36;16.42;;;14.77;;
24739;SDS011;45234;48.148;17.128;2023-05-07T07:51:04;15.80;;;14.20;;
24739;SDS011;45234;48.148;17.128;2023-05-07T07:53:32;15.35;;;13.52;;
24739;SDS011;45234;48.148;17.128;2023-05-07T07:55:59;14.50;;;13.10;;
24739;SDS011;45234;48.148;17.128;2023-05-07T07:58:32;15.40;;;13.90;;
24739;SDS011;45234;48.148;17.128;2023-05-07T08:01:01;13.05;;;11.80;;
24739;SDS011;45234;48.148;17.128;2023-05-07T08:03:28;15.15;;;13.55;;
24739;SDS011;45234;48.148;17.128;2023-05-07T08:06:00;15.05;;;13.57;;
24739;SDS011;45234;48.148;17.128;2023-05-07T08:10:57;13.13;;;11.77;;
24739;SDS011;45234;48.148;17.128;2023-05-07T08:13:29;14.38;;;12.48;;
24739;SDS011;45234;48.148;17.128;2023-05-07T08:15:57;14.10;;;12.48;;
24739;SDS011;45234;48.148;17.128;2023-05-07T08:18:24;13.02;;;11.70;;
24739;SDS011;45234;48.148;17.128;2023-05-07T08:20:52;14.70;;;12.40;;
24739;SDS011;45234;48.148;17.128;2023-05-07T08:23:23;12.55;;;11.35;;
24739;SDS011;45234;48.148;17.128;2023-05-07T08:25:51;13.55;;;12.13;;
24739;SDS011;45234;48.148;17.128;2023-05-07T08:28:19;12.73;;;11.52;;
24739;SDS011;45234;48.148;17.128;2023-05-07T08:30:47;13.20;;;11.90;;
24739;SDS011;45234;48.148;17.128;2023-05-07T08:33:18;12.48;;;11.18;;
24739;SDS011;45234;48.148;17.128;2023-05-07T08:35:45;12.48;;;11.27;;
24739;SDS011;45234;48.148;17.128;2023-05-07T08:38:13;12.88;;;11.18;;
24739;SDS011;45234;48.148;17.128;2023-05-07T08:40:40;12.50;;;11.27;;
24739;SDS011;45234;48.148;17.128;2023-05-07T08:45:44;10.82;;;9.82;;
24739;SDS011;45234;48.148;17.128;2023-05-07T08:48:16;10.55;;;9.38;;
24739;SDS011;45234;48.148;17.128;2023-05-07T08:50:54;10.27;;;9.30;;
24739;SDS011;45234;48.148;17.128;2023-05-07T08:53:21;9.68;;;8.68;;
24739;SDS011;45234;48.148;17.128;2023-05-07T08:55:48;9.18;;;8.27;;
24739;SDS011;45234;48.148;17.128;2023-05-07T08:58:16;10.60;;;9.60;;
24739;SDS011;45234;48.148;17.128;2023-05-07T09:00:43;9.35;;;8.45;;
24739;SDS011;45234;48.148;17.128;2023-05-07T09:03:13;9.07;;;8.18;;
24739;SDS011;45234;48.148;17.128;2023-05-07T09:05:44;9.65;;;8.65;;
24739;SDS011;45234;48.148;17.128;2023-05-07T09:08:14;9.77;;;8.88;;
24739;SDS011;45234;48.148;17.128;2023-05-07T09:10:47;9.32;;;8.07;;
24739;SDS011;45234;48.148;17.128;2023-05-07T09:13:15;10.35;;;9.35;;
24739;SDS011;45234;48.148;17.128;2023-05-07T09:15:45;10.80;;;9.80;;
24739;SDS011;45234;48.148;17.128;2023-05-07T09:18:12;11.38;;;10.02;;
24739;SDS011;45234;48.148;17.128;2023-05-07T09:20:43;12.88;;;10.65;;
24739;SDS011;45234;48.148;17.128;2023-05-07T09:23:10;11.02;;;9.68;;
24739;SDS011;45234;48.148;17.128;2023-05-07T09:25:38;10.55;;;9.02;;
24739;SDS011;45234;48.148;17.128;2023-05-07T09:28:13;10.80;;;9.63;;
24739;SDS011;45234;48.148;17.128;2023-05-07T09:30:43;8.55;;;7.65;;
24739;SDS011;45234;48.148;17.128;2023-05-07T09:33:12;9.55;;;8.65;;
24739;SDS011;45234;48.148;17.128;2023-05-07T09:38:15;10.85;;;9.77;;
24739;SDS011;45234;48.148;17.128;2023-05-07T09:40:47;10.40;;;9.00;;
24739;SDS011;45234;48.148;17.128;2023-05-07T09:43:31;9.65;;;8.68;;
24739;SDS011;45234;48.148;17.128;2023-05-07T09:46:03;12.45;;;8.43;;
24739;SDS011;45234;48.148;17.128;2023-05-07T09:48:36;9.20;;;8.30;;
24739;SDS011;45234;48.148;17.128;2023-05-07T09:53:56;8.68;;;7.05;;
24739;SDS011;45234;48.148;17.128;2023-05-07T09:59:23;7.03;;;6.32;;
24739;SDS011;45234;48.148;17.128;2023-05-07T10:01:57;7.82;;;6.95;;
24739;SDS011;45234;48.148;17.128;2023-05-07T10:04:29;9.23;;;8.25;;
24739;SDS011;45234;48.148;17.128;2023-05-07T10:06:57;7.97;;;7.28;;
24739;SDS011;45234;48.148;17.128;2023-05-07T10:09:26;9.65;;;8.63;;
24739;SDS011;45234;48.148;17.128;2023-05-07T10:11:53;8.93;;;8.13;;
24739;SDS011;45234;48.148;17.128;2023-05-07T10:14:21;10.05;;;8.82;;
24739;SDS011;45234;48.148;17.128;2023-05-07T10:16:50;11.02;;;8.48;;
24739;SDS011;45234;48.148;17.128;2023-05-07T10:21:56;8.05;;;7.25;;
24739;SDS011;45234;48.148;17.128;2023-05-07T10:24:36;8.27;;;7.10;;
24739;SDS011;45234;48.148;17.128;2023-05-07T10:27:10;9.55;;;6.85;;
24739;SDS011;45234;48.148;17.128;2023-05-07T10:32:47;10.20;;;8.57;;
24739;SDS011;45234;48.148;17.128;2023-05-07T10:35:29;10.88;;;9.77;;
24739;SDS011;45234;48.148;17.128;2023-05-07T10:38:02;10.80;;;8.18;;
24739;SDS011;45234;48.148;17.128;2023-05-07T10:40:35;8.50;;;7.65;;
24739;SDS011;45234;48.148;17.128;2023-05-07T10:43:05;7.38;;;6.68;;
24739;SDS011;45234;48.148;17.128;2023-05-07T10:45:40;8.15;;;7.32;;
24739;SDS011;45234;48.148;17.128;2023-05-07T10:51:24;9.02;;;8.13;;
24739;SDS011;45234;48.148;17.128;2023-05-07T10:56:47;10.18;;;7.32;;
24739;SDS011;45234;48.148;17.128;2023-05-07T11:01:54;7.00;;;6.30;;
24739;SDS011;45234;48.148;17.128;2023-05-07T11:04:35;10.27;;;7.07;;
24739;SDS011;45234;48.148;17.128;2023-05-07T11:07:18;8.32;;;6.93;;
24739;SDS011;45234;48.148;17.128;2023-05-07T11:10:02;7.75;;;6.88;;
24739;SDS011;45234;48.148;17.128;2023-05-07T11:12:57;7.15;;;6.00;;
24739;SDS011;45234;48.148;17.128;2023-05-07T11:15:36;7.93;;;5.72;;
24739;SDS011;45234;48.148;17.128;2023-05-07T11:18:16;5.85;;;5.30;;
24739;SDS011;45234;48.148;17.128;2023-05-07T11:20:49;5.97;;;5.28;;
24739;SDS011;45234;48.148;17.128;2023-05-07T11:26:10;6.50;;;5.07;;
24739;SDS011;45234;48.148;17.128;2023-05-07T11:28:44;8.25;;;5.05;;
24739;SDS011;45234;48.148;17.128;2023-05-07T11:31:11;5.35;;;4.47;;
24739;SDS011;45234;48.148;17.128;2023-05-07T11:33:39;5.32;;;4.50;;
24739;SDS011;45234;48.148;17.128;2023-05-07T11:36:11;5.35;;;4.47;;
24739;SDS011;45234;48.148;17.128;2023-05-07T11:38:43;3.65;;;3.30;;
24739;SDS011;45234;48.148;17.128;2023-05-07T11:41:10;5.65;;;3.83;;
24739;SDS011;45234;48.148;17.128;2023-05-07T11:43:37;6.85;;;4.45;;
24739;SDS011;45234;48.148;17.128;2023-05-07T11:46:07;4.00;;;3.60;;
24739;SDS011;45234;48.148;17.128;2023-05-07T11:48:35;4.68;;;3.95;;
24739;SDS011;45234;48.148;17.128;2023-05-07T11:51:05;5.22;;;3.67;;
24739;SDS011;45234;48.148;17.128;2023-05-07T11:53:38;4.60;;;3.90;;
24739;SDS011;45234;48.148;17.128;2023-05-07T11:56:10;5.07;;;4.18;;
24739;SDS011;45234;48.148;17.128;2023-05-07T11:58:39;3.97;;;3.60;;
24739;SDS011;45234;48.148;17.128;2023-05-07T12:01:07;7.05;;;4.07;;
24739;SDS011;45234;48.148;17.128;2023-05-07T12:03:36;3.78;;;3.47;;
24739;SDS011;45234;48.148;17.128;2023-05-07T12:06:08;4.45;;;4.05;;
24739;SDS011;45234;48.148;17.128;2023-05-07T12:08:38;8.68;;;3.95;;
24739;SDS011;45234;48.148;17.128;2023-05-07T12:11:07;4.75;;;3.65;;
24739;SDS011;45234;48.148;17.128;2023-05-07T12:13:37;5.65;;;4.13;;
24739;SDS011;45234;48.148;17.128;2023-05-07T12:16:04;3.70;;;3.10;;
24739;SDS011;45234;48.148;17.128;2023-05-07T12:18:32;7.97;;;3.55;;
24739;SDS011;45234;48.148;17.128;2023-05-07T12:21:01;5.63;;;3.40;;
24739;SDS011;45234;48.148;17.128;2023-05-07T12:23:29;4.40;;;4.00;;
24739;SDS011;45234;48.148;17.128;2023-05-07T12:25:56;4.40;;;3.78;;
24739;SDS011;45234;48.148;17.128;2023-05-07T12:28:25;5.13;;;3.88;;
24739;SDS011;45234;48.148;17.128;2023-05-07T12:30:54;3.63;;;3.17;;
24739;SDS011;45234;48.148;17.128;2023-05-07T12:33:25;4.30;;;3.75;;
24739;SDS011;45234;48.148;17.128;2023-05-07T12:35:54;4.15;;;3.75;;
24739;SDS011;45234;48.148;17.128;2023-05-07T12:38:22;5.15;;;3.50;;
24739;SDS011;45234;48.148;17.128;2023-05-07T12:40:53;4.43;;;3.40;;
24739;SDS011;45234;48.148;17.128;2023-05-07T12:43:21;4.22;;;3.35;;
24739;SDS011;45234;48.148;17.128;2023-05-07T12:45:53;4.60;;;3.53;;
24739;SDS011;45234;48.148;17.128;2023-05-07T12:48:25;3.15;;;2.85;;
24739;SDS011;45234;48.148;17.128;2023-05-07T12:50:53;3.35;;;2.70;;
24739;SDS011;45234;48.148;17.128;2023-05-07T12:53:24;3.22;;;2.88;;
24739;SDS011;45234;48.148;17.128;2023-05-07T12:55:55;3.40;;;3.10;;
24739;SDS011;45234;48.148;17.128;2023-05-07T13:00:53;4.63;;;3.05;;
24739;SDS011;45234;48.148;17.128;2023-05-07T13:03:29;2.92;;;2.63;;
24739;SDS011;45234;48.148;17.128;2023-05-07T13:05:59;2.63;;;2.42;;
24739;SDS011;45234;48.148;17.128;2023-05-07T13:08:31;3.28;;;2.92;;
24739;SDS011;45234;48.148;17.128;2023-05-07T13:11:00;3.42;;;2.92;;
24739;SDS011;45234;48.148;17.128;2023-05-07T13:13:30;3.85;;;3.00;;
24739;SDS011;45234;48.148;17.128;2023-05-07T13:15:58;3.45;;;3.00;;
24739;SDS011;45234;48.148;17.128;2023-05-07T13:18:26;3.38;;;2.67;;
24739;SDS011;45234;48.148;17.128;2023-05-07T13:20:55;4.50;;;2.78;;
24739;SDS011;45234;48.148;17.128;2023-05-07T13:23:22;3.22;;;2.92;;
24739;SDS011;45234;48.148;17.128;2023-05-07T13:25:49;5.68;;;2.97;;
24739;SDS011;45234;48.148;17.128;2023-05-07T13:28:16;3.05;;;2.40;;
24739;SDS011;45234;48.148;17.128;2023-05-07T13:30:43;4.07;;;3.13;;
24739;SDS011;45234;48.148;17.128;2023-05-07T13:33:10;3.75;;;3.15;;
24739;SDS011;45234;48.148;17.128;2023-05-07T13:35:37;3.25;;;2.88;;
24739;SDS011;45234;48.148;17.128;2023-05-07T13:38:04;2.75;;;2.47;;
24739;SDS011;45234;48.148;17.128;2023-05-07T13:40:31;2.97;;;2.63;;
24739;SDS011;45234;48.148;17.128;2023-05-07T13:42:58;2.88;;;2.17;;
24739;SDS011;45234;48.148;17.128;2023-05-07T13:45:28;4.82;;;2.72;;
24739;SDS011;45234;48.148;17.128;2023-05-07T13:47:55;4.55;;;3.13;;
24739;SDS011;45234;48.148;17.128;2023-05-07T13:50:22;3.90;;;3.17;;
24739;SDS011;45234;48.148;17.128;2023-05-07T13:52:50;3.10;;;2.80;;
24739;SDS011;45234;48.148;17.128;2023-05-07T13:55:17;2.97;;;2.60;;
24739;SDS011;45234;48.148;17.128;2023-05-07T13:57:45;6.15;;;2.50;;
24739;SDS011;45234;48.148;17.128;2023-05-07T14:00:13;3.70;;;2.80;;
24739;SDS011;45234;48.148;17.128;2023-05-07T14:02:43;3.00;;;2.70;;
24739;SDS011;45234;48.148;17.128;2023-05-07T14:05:10;2.63;;;2.42;;
24739;SDS011;45234;48.148;17.128;2023-05-07T14:07:36;4.75;;;2.72;;
24739;SDS011;45234;48.148;17.128;2023-05-07T14:10:03;4.72;;;2.65;;
24739;SDS011;45234;48.148;17.128;2023-05-07T14:12:31;2.88;;;2.40;;
24739;SDS011;45234;48.148;17.128;2023-05-07T14:14:58;3.08;;;2.78;;
24739;SDS011;45234;48.148;17.128;2023-05-07T14:17:25;3.67;;;2.70;;
24739;SDS011;45234;48.148;17.128;2023-05-07T14:19:53;3.15;;;2.85;;
24739;SDS011;45234;48.148;17.128;2023-05-07T14:22:20;3.28;;;2.63;;
24739;SDS011;45234;48.148;17.128;2023-05-07T14:24:48;5.22;;;2.80;;
24739;SDS011;45234;48.148;17.128;2023-05-07T14:27:32;3.92;;;2.40;;
24739;SDS011;45234;48.148;17.128;2023-05-07T14:29:59;4.18;;;2.53;;
24739;SDS011;45234;48.148;17.128;2023-05-07T14:32:32;3.15;;;2.50;;
24739;SDS011;45234;48.148;17.128;2023-05-07T14:34:59;3.20;;;2.72;;
24739;SDS011;45234;48.148;17.128;2023-05-07T14:37:30;3.65;;;2.50;;
24739;SDS011;45234;48.148;17.128;2023-05-07T14:39:57;3.03;;;2.42;;
24739;SDS011;45234;48.148;17.128;2023-05-07T14:42:24;2.72;;;2.53;;
24739;SDS011;45234;48.148;17.128;2023-05-07T14:44:51;2.42;;;2.22;;
24739;SDS011;45234;48.148;17.128;2023-05-07T14:47:18;2.50;;;2.30;;
24739;SDS011;45234;48.148;17.128;2023-05-07T14:49:45;2.95;;;2.60;;
24739;SDS011;45234;48.148;17.128;2023-05-07T14:52:12;3.08;;;2.78;;
24739;SDS011;45234;48.148;17.128;2023-05-07T14:54:39;2.95;;;2.45;;
24739;SDS011;45234;48.148;17.128;2023-05-07T14:57:08;3.17;;;2.30;;
24739;SDS011;45234;48.148;17.128;2023-05-07T14:59:37;3.25;;;2.92;;
24739;SDS011;45234;48.148;17.128;2023-05-07T15:02:07;2.70;;;2.45;;
24739;SDS011;45234;48.148;17.128;2023-05-07T15:04:39;4.45;;;2.83;;
24739;SDS011;45234;48.148;17.128;2023-05-07T15:07:14;4.20;;;2.60;;
24739;SDS011;45234;48.148;17.128;2023-05-07T15:09:43;4.13;;;2.53;;
24739;SDS011;45234;48.148;17.128;2023-05-07T15:12:10;2.50;;;2.30;;
24739;SDS011;45234;48.148;17.128;2023-05-07T15:14:38;3.72;;;2.90;;